createdAt,value
2019-01-18T00:02:23.388Z,2.40
2019-01-18T00:04:51.234Z,2.40
2019-01-18T00:07:19.087Z,2.30
2019-01-18T00:09:46.963Z,2.30
2019-01-18T00:12:14.811Z,2.20
2019-01-18T00:14:42.717Z,2.20
2019-01-18T00:17:10.547Z,2.10
2019-01-18T00:19:38.436Z,2.10
2019-01-18T00:22:06.212Z,2.10
2019-01-18T00:24:34.001Z,2.10
2019-01-18T00:27:01.841Z,2.00
2019-01-18T00:29:29.911Z,2.00
2019-01-18T00:31:57.752Z,1.90
2019-01-18T00:34:25.634Z,1.90
2019-01-18T00:36:53.571Z,1.80
2019-01-18T00:39:21.383Z,1.90
2019-01-18T00:41:49.154Z,1.90
2019-01-18T00:44:16.939Z,1.90
2019-01-18T00:46:44.757Z,1.80
2019-01-18T00:49:12.546Z,1.80
2019-01-18T00:51:40.315Z,1.80
2019-01-18T00:54:08.150Z,1.80
2019-01-18T00:56:36.189Z,1.80
2019-01-18T00:59:04.003Z,1.80
2019-01-18T01:01:31.859Z,1.70
2019-01-18T01:03:59.738Z,1.80
2019-01-18T01:06:28.422Z,1.80
2019-01-18T01:08:56.378Z,1.80
2019-01-18T01:11:24.142Z,1.80
2019-01-18T01:13:52.098Z,1.80
2019-01-18T01:16:19.978Z,1.80
2019-01-18T01:18:47.767Z,1.80
2019-01-18T01:21:15.621Z,1.70
2019-01-18T01:23:43.580Z,1.70
2019-01-18T01:26:11.354Z,1.70
2019-01-18T01:28:39.137Z,1.60
2019-01-18T01:31:06.979Z,1.40
2019-01-18T01:33:34.844Z,1.30
2019-01-18T01:36:02.653Z,1.30
2019-01-18T01:38:30.752Z,1.10
2019-01-18T01:40:58.538Z,1.00
2019-01-18T01:43:26.304Z,0.80
2019-01-18T01:45:54.082Z,0.70
2019-01-18T01:48:21.857Z,0.70
2019-01-18T01:50:49.646Z,0.60
2019-01-18T01:53:17.483Z,0.50
2019-01-18T01:55:45.374Z,0.50
2019-01-18T01:58:13.149Z,0.50
2019-01-18T02:00:41.170Z,0.50
2019-01-18T02:03:09.442Z,0.40
2019-01-18T02:05:37.253Z,0.40
2019-01-18T02:08:05.027Z,0.40
2019-01-18T02:10:32.819Z,0.40
2019-01-18T02:13:00.613Z,0.30
2019-01-18T02:15:28.502Z,0.30
2019-01-18T02:17:56.275Z,0.20
2019-01-18T02:20:24.211Z,0.10
2019-01-18T02:22:52.074Z,0.10
2019-01-18T02:25:20.063Z,0.10
2019-01-18T02:27:48.004Z,0.10
2019-01-18T02:30:17.492Z,0.10
2019-01-18T02:32:45.475Z,0.10
2019-01-18T02:35:13.326Z,0.10
2019-01-18T02:37:41.120Z,0.10
2019-01-18T02:40:08.906Z,0.10
2019-01-18T02:42:36.689Z,0.10
2019-01-18T02:45:05.600Z,0.00
2019-01-18T02:47:33.430Z,0.00
2019-01-18T02:50:01.338Z,-0.10
2019-01-18T02:52:29.162Z,-0.20
2019-01-18T02:54:57.046Z,-0.20
2019-01-18T02:57:24.827Z,-0.20
2019-01-18T02:59:52.622Z,-0.20
2019-01-18T03:02:20.426Z,-0.20
2019-01-18T03:04:48.330Z,-0.30
2019-01-18T03:07:16.190Z,-0.40
2019-01-18T03:09:44.130Z,-0.40
2019-01-18T03:12:11.907Z,-0.30
2019-01-18T03:14:39.763Z,-0.30
2019-01-18T03:17:07.751Z,-0.30
2019-01-18T03:19:35.531Z,-0.30
2019-01-18T03:22:03.386Z,-0.30
2019-01-18T03:24:31.238Z,-0.40
2019-01-18T03:26:59.117Z,-0.40
2019-01-18T03:29:26.902Z,-0.50
2019-01-18T03:31:55.009Z,-0.50
2019-01-18T03:34:22.806Z,-0.40
2019-01-18T03:36:50.698Z,-0.40
2019-01-18T03:39:18.555Z,-0.40
2019-01-18T03:41:46.431Z,-0.40
2019-01-18T03:44:14.386Z,-0.40
2019-01-18T03:46:42.269Z,-0.40
2019-01-18T03:49:10.090Z,-0.40
2019-01-18T03:51:38.182Z,-0.40
2019-01-18T03:54:05.968Z,-0.30
2019-01-18T03:56:33.758Z,-0.30
2019-01-18T03:59:01.542Z,-0.20
2019-01-18T04:01:29.366Z,-0.20
2019-01-18T04:03:57.212Z,-0.30
2019-01-18T04:06:25.073Z,-0.20
2019-01-18T04:08:52.946Z,-0.20
2019-01-18T04:11:20.877Z,-0.20
2019-01-18T04:13:48.698Z,-0.20
2019-01-18T04:16:17.967Z,-0.10
2019-01-18T04:18:45.741Z,-0.20
2019-01-18T04:21:13.565Z,-0.10
2019-01-18T04:23:41.359Z,-0.10
2019-01-18T04:26:09.179Z,-0.10
2019-01-18T04:28:36.942Z,-0.10
2019-01-18T04:31:04.728Z,0.00
2019-01-18T04:33:32.502Z,0.00
2019-01-18T04:36:00.322Z,0.00
2019-01-18T04:38:28.182Z,0.00
2019-01-18T04:40:56.055Z,0.00
2019-01-18T04:43:24.178Z,0.00
2019-01-18T04:45:52.380Z,0.10
2019-01-18T04:48:20.291Z,0.10
2019-01-18T04:50:48.071Z,0.10
2019-01-18T04:53:15.863Z,0.00
2019-01-18T04:55:43.665Z,0.00
2019-01-18T04:58:11.458Z,0.00
2019-01-18T05:00:40.924Z,0.00
2019-01-18T05:03:08.802Z,0.00
2019-01-18T05:05:37.049Z,-0.10
2019-01-18T05:08:04.852Z,-0.10
2019-01-18T05:10:32.705Z,-0.10
2019-01-18T05:13:00.511Z,-0.10
2019-01-18T05:15:29.271Z,-0.10
2019-01-18T05:17:57.062Z,-0.10
2019-01-18T05:20:24.838Z,-0.10
2019-01-18T05:22:52.723Z,-0.10
2019-01-18T05:25:20.516Z,-0.10
2019-01-18T05:27:48.414Z,-0.10
2019-01-18T05:30:23.550Z,-0.10
2019-01-18T05:32:51.410Z,-0.10
2019-01-18T05:35:19.330Z,-0.10
2019-01-18T05:37:47.222Z,0.00
2019-01-18T05:40:15.481Z,0.00
2019-01-18T05:42:43.290Z,-0.10
2019-01-18T05:45:11.699Z,-0.10
2019-01-18T05:47:39.539Z,-0.10
2019-01-18T05:50:09.295Z,-0.20
2019-01-18T05:52:37.406Z,-0.10
2019-01-18T05:55:05.471Z,-0.20
2019-01-18T05:57:33.386Z,-0.20
2019-01-18T06:00:01.225Z,-0.10
2019-01-18T06:02:29.095Z,-0.10
2019-01-18T06:04:57.129Z,-0.10
2019-01-18T06:07:24.939Z,-0.10
2019-01-18T06:09:52.706Z,-0.10
2019-01-18T06:12:20.571Z,-0.10
2019-01-18T06:14:48.346Z,-0.10
2019-01-18T06:17:16.138Z,-0.10
2019-01-18T06:19:43.946Z,-0.10
2019-01-18T06:22:11.725Z,-0.10
2019-01-18T06:24:39.674Z,-0.20
2019-01-18T06:27:07.552Z,-0.20
2019-01-18T06:29:35.365Z,-0.20
2019-01-18T06:32:03.439Z,-0.30
2019-01-18T06:34:31.351Z,-0.30
2019-01-18T06:36:59.129Z,-0.30
2019-01-18T06:39:27.010Z,-0.40
2019-01-18T06:41:55.037Z,-0.40
2019-01-18T06:44:23.098Z,-0.40
2019-01-18T06:46:51.246Z,-0.50
2019-01-18T06:49:19.757Z,-0.40
2019-01-18T06:51:47.531Z,-0.50
2019-01-18T06:54:15.406Z,-0.50
2019-01-18T06:56:43.331Z,-0.60
2019-01-18T06:59:11.170Z,-0.60
2019-01-18T07:01:39.024Z,-0.70
2019-01-18T07:04:06.953Z,-0.70
2019-01-18T07:06:34.715Z,-0.70
2019-01-18T07:09:02.525Z,-0.80
2019-01-18T07:11:30.390Z,-0.80
2019-01-18T07:13:58.291Z,-0.80
2019-01-18T07:16:26.135Z,-0.90
2019-01-18T07:18:54.005Z,-0.90
2019-01-18T07:21:21.862Z,-0.90
2019-01-18T07:23:49.655Z,-0.90
2019-01-18T07:26:17.434Z,-0.90
2019-01-18T07:28:45.228Z,-0.90
2019-01-18T07:31:15.249Z,-0.90
2019-01-18T07:33:42.542Z,-0.90
2019-01-18T07:36:10.318Z,-0.90
2019-01-18T07:38:38.121Z,-0.90
2019-01-18T07:41:05.907Z,-0.90
2019-01-18T07:43:33.818Z,-0.90
2019-01-18T07:46:01.739Z,-0.90
2019-01-18T07:48:29.663Z,-1.00
2019-01-18T07:50:57.502Z,-0.90
2019-01-18T07:53:25.382Z,-0.90
2019-01-18T07:55:53.203Z,-1.00
2019-01-18T07:58:20.994Z,-0.90
2019-01-18T08:00:48.857Z,-0.90
2019-01-18T08:03:16.763Z,-0.90
2019-01-18T08:05:44.591Z,-0.90
2019-01-18T08:08:12.506Z,-0.90
2019-01-18T08:10:40.331Z,-0.90
2019-01-18T08:13:08.222Z,-0.80
2019-01-18T08:15:36.059Z,-0.80
2019-01-18T08:18:04.019Z,-0.80
2019-01-18T08:20:31.914Z,-0.80
2019-01-18T08:23:00.406Z,-0.70
2019-01-18T08:25:28.198Z,-0.70
2019-01-18T08:27:56.235Z,-0.70
2019-01-18T08:30:24.994Z,-0.70
2019-01-18T08:32:53.151Z,-0.70
2019-01-18T08:35:21.522Z,-0.70
2019-01-18T08:37:49.358Z,-0.60
2019-01-18T08:40:18.507Z,-0.60
2019-01-18T08:42:46.318Z,-0.60
2019-01-18T08:45:16.343Z,-0.60
2019-01-18T08:47:44.174Z,-0.60
2019-01-18T08:50:12.837Z,-0.60
2019-01-18T08:52:40.614Z,-0.60
2019-01-18T08:55:09.351Z,-0.50
2019-01-18T08:57:37.144Z,-0.40
2019-01-18T09:00:05.798Z,-0.30
2019-01-18T09:02:33.634Z,-0.30
2019-01-18T09:05:01.436Z,-0.20
2019-01-18T09:07:29.267Z,-0.20
2019-01-18T09:09:57.163Z,-0.20
2019-01-18T09:12:25.002Z,-0.10
2019-01-18T09:14:52.810Z,0.00
2019-01-18T09:17:20.634Z,0.00
2019-01-18T09:19:48.418Z,0.00
2019-01-18T09:22:16.199Z,0.10
2019-01-18T09:24:44.038Z,0.10
2019-01-18T09:27:11.967Z,0.20
2019-01-18T09:29:39.781Z,0.20
2019-01-18T09:32:07.576Z,0.30
2019-01-18T09:34:35.410Z,0.30
2019-01-18T09:37:03.263Z,0.30
2019-01-18T09:39:31.158Z,0.30
2019-01-18T09:41:59.002Z,0.40
2019-01-18T09:44:26.893Z,0.50
2019-01-18T09:46:54.734Z,0.50
2019-01-18T09:49:22.611Z,0.50
2019-01-18T09:51:50.464Z,0.60
2019-01-18T09:54:18.359Z,0.70
2019-01-18T09:56:46.202Z,0.70
2019-01-18T09:59:15.086Z,0.80
2019-01-18T10:01:49.109Z,0.80
2019-01-18T10:04:12.591Z,0.80
2019-01-18T10:06:40.902Z,0.90
2019-01-18T10:09:08.818Z,0.90
2019-01-18T10:11:36.679Z,1.00
2019-01-18T10:14:04.730Z,0.90
2019-01-18T10:16:32.663Z,0.90
2019-01-18T10:19:00.502Z,1.00
2019-01-18T10:21:28.430Z,1.10
2019-01-18T10:23:56.256Z,1.10
2019-01-18T10:26:24.116Z,1.00
2019-01-18T10:28:52.240Z,0.90
2019-01-18T10:31:20.052Z,0.90
2019-01-18T10:33:47.949Z,0.90
2019-01-18T10:36:16.819Z,0.90
2019-01-18T10:38:44.667Z,1.00
2019-01-18T10:41:12.558Z,1.10
2019-01-18T10:43:40.385Z,1.10
2019-01-18T10:46:08.282Z,1.20
2019-01-18T10:48:36.169Z,1.30
2019-01-18T10:51:04.118Z,1.40
2019-01-18T10:53:31.966Z,1.30
2019-01-18T10:55:59.842Z,1.30
2019-01-18T10:58:27.774Z,1.40
2019-01-18T11:00:55.585Z,1.40
2019-01-18T11:03:23.430Z,1.40
2019-01-18T11:05:51.328Z,1.40
2019-01-18T11:08:19.171Z,1.40
2019-01-18T11:10:47.230Z,1.50
2019-01-18T11:13:15.366Z,1.50
2019-01-18T11:15:43.190Z,1.50
2019-01-18T11:18:11.051Z,1.50
2019-01-18T11:20:44.135Z,1.50
2019-01-18T11:23:12.018Z,1.50
2019-01-18T11:25:39.898Z,1.50
2019-01-18T11:28:07.746Z,1.70
2019-01-18T11:30:35.718Z,1.70
2019-01-18T11:33:03.799Z,1.70
2019-01-18T11:35:31.669Z,1.70
2019-01-18T11:37:59.526Z,1.70
2019-01-18T11:40:27.315Z,1.80
2019-01-18T11:42:55.162Z,1.90
2019-01-18T11:45:23.102Z,1.90
2019-01-18T11:47:50.983Z,1.80
2019-01-18T11:50:19.954Z,1.80
2019-01-18T11:52:47.742Z,1.80
2019-01-18T11:55:15.675Z,1.90
2019-01-18T11:57:43.774Z,1.90
2019-01-18T12:00:13.515Z,1.80
2019-01-18T12:02:41.385Z,1.80
2019-01-18T12:05:09.323Z,1.80
2019-01-18T12:07:37.206Z,1.90
2019-01-18T12:10:06.667Z,1.90
2019-01-18T12:12:34.466Z,1.90
2019-01-18T12:15:02.546Z,1.90
2019-01-18T12:17:30.414Z,1.90
2019-01-18T12:19:58.303Z,1.90
2019-01-18T12:22:26.418Z,1.90
2019-01-18T12:24:54.492Z,1.90
2019-01-18T12:27:22.311Z,1.90
2019-01-18T12:29:50.154Z,2.00
2019-01-18T12:32:18.045Z,2.00
2019-01-18T12:34:45.892Z,2.00
2019-01-18T12:37:13.850Z,2.00
2019-01-18T12:39:41.725Z,2.00
2019-01-18T12:42:09.622Z,2.00
2019-01-18T12:44:37.464Z,2.00
2019-01-18T12:47:05.418Z,2.00
2019-01-18T12:49:33.335Z,2.00
2019-01-18T12:52:01.346Z,2.00
2019-01-18T12:54:29.137Z,2.00
2019-01-18T12:56:57.058Z,2.00
2019-01-18T12:59:24.866Z,2.00
2019-01-18T13:01:52.755Z,2.00
2019-01-18T13:04:20.610Z,2.00
2019-01-18T13:06:48.490Z,2.00
2019-01-18T13:09:16.338Z,2.10
2019-01-18T13:11:44.240Z,2.10
2019-01-18T13:14:12.070Z,2.00
2019-01-18T13:16:41.894Z,2.10
2019-01-18T13:19:12.367Z,2.10
2019-01-18T13:21:40.239Z,2.00
2019-01-18T13:24:08.069Z,2.00
2019-01-18T13:26:36.133Z,2.00
2019-01-18T13:29:04.167Z,2.00
2019-01-18T13:31:32.083Z,2.00
2019-01-18T13:34:03.147Z,1.90
2019-01-18T13:36:29.638Z,1.90
2019-01-18T13:38:57.423Z,1.80
2019-01-18T13:41:25.299Z,1.80
2019-01-18T13:43:53.154Z,1.80
2019-01-18T13:46:20.967Z,1.80
2019-01-18T13:48:48.859Z,1.80
2019-01-18T13:51:17.115Z,1.80
2019-01-18T13:53:44.915Z,1.80
2019-01-18T13:56:12.717Z,1.90
2019-01-18T13:58:40.567Z,1.80
2019-01-18T14:01:08.436Z,1.80
2019-01-18T14:03:36.226Z,1.80
2019-01-18T14:06:04.136Z,1.70
2019-01-18T14:08:31.957Z,1.70
2019-01-18T14:11:00.352Z,1.70
2019-01-18T14:13:28.154Z,1.70
2019-01-18T14:15:55.941Z,1.70
2019-01-18T14:18:23.732Z,1.70
2019-01-18T14:20:51.666Z,1.70
2019-01-18T14:23:19.570Z,1.70
2019-01-18T14:25:47.404Z,1.70
2019-01-18T14:28:15.286Z,1.70
2019-01-18T14:30:43.059Z,1.70
2019-01-18T14:33:12.369Z,1.70
2019-01-18T14:35:40.206Z,1.70
2019-01-18T14:38:08.375Z,1.70
2019-01-18T14:40:36.439Z,1.70
2019-01-18T14:45:44.120Z,1.60
2019-01-18T14:48:11.939Z,1.60
2019-01-18T14:50:39.799Z,1.50
2019-01-18T14:53:07.691Z,1.50
2019-01-18T14:55:35.849Z,1.40
2019-01-18T14:58:06.366Z,1.40
2019-01-18T15:00:35.854Z,1.50
2019-01-18T15:03:04.624Z,1.40
2019-01-18T15:05:32.635Z,1.40
2019-01-18T15:08:00.537Z,1.40
2019-01-18T15:10:28.367Z,1.50
2019-01-18T15:12:57.759Z,1.50
2019-01-18T15:15:25.637Z,1.50
2019-01-18T15:17:53.536Z,1.50
2019-01-18T15:20:22.519Z,1.50
2019-01-18T15:22:50.603Z,1.50
2019-01-18T15:25:19.623Z,1.40
2019-01-18T15:27:47.653Z,1.30
2019-01-18T15:30:16.836Z,1.30
2019-01-18T15:32:44.645Z,1.30
2019-01-18T15:35:13.654Z,1.30
2019-01-18T15:37:41.559Z,1.40
2019-01-18T15:40:10.478Z,1.40
2019-01-18T15:42:38.352Z,1.40
2019-01-18T15:45:06.987Z,1.40
2019-01-18T15:47:34.770Z,1.30
2019-01-18T15:50:02.702Z,1.30
2019-01-18T15:52:30.482Z,1.30
2019-01-18T15:54:58.318Z,1.30
2019-01-18T15:57:26.129Z,1.30
2019-01-18T15:59:54.055Z,1.40
2019-01-18T16:02:21.878Z,1.40
2019-01-18T16:04:49.698Z,1.50
2019-01-18T16:07:17.554Z,1.50
2019-01-18T16:09:45.414Z,1.60
2019-01-18T16:12:13.244Z,1.60
2019-01-18T16:14:41.073Z,1.70
2019-01-18T16:17:11.175Z,1.70
2019-01-18T16:19:38.986Z,1.70
2019-01-18T16:22:06.851Z,1.80
2019-01-18T16:24:34.676Z,1.80
2019-01-18T16:27:02.765Z,1.80
2019-01-18T16:29:30.727Z,1.90
2019-01-18T16:31:59.559Z,1.90
2019-01-18T16:34:27.467Z,1.90
2019-01-18T16:36:55.302Z,1.90
2019-01-18T16:39:23.396Z,1.90
2019-01-18T16:41:51.182Z,1.90
2019-01-18T16:44:19.259Z,1.90
2019-01-18T16:46:47.046Z,2.00
2019-01-18T16:49:14.858Z,1.90
2019-01-18T16:51:42.638Z,1.90
2019-01-18T16:54:10.463Z,1.90
2019-01-18T16:56:38.339Z,1.90
2019-01-18T16:59:06.251Z,1.90
2019-01-18T17:01:34.075Z,1.90
2019-01-18T17:04:02.312Z,1.90
2019-01-18T17:06:30.097Z,1.90
2019-01-18T17:08:58.014Z,1.90
2019-01-18T17:11:25.834Z,1.90
2019-01-18T17:13:53.810Z,2.00
2019-01-18T17:16:21.678Z,2.00
2019-01-18T17:18:49.502Z,2.00
2019-01-18T17:21:17.267Z,2.00
2019-01-18T17:23:45.307Z,2.00
2019-01-18T17:26:13.154Z,2.10
2019-01-18T17:28:40.994Z,2.10
2019-01-18T17:31:08.786Z,2.00
2019-01-18T17:33:37.103Z,2.10
2019-01-18T17:36:08.919Z,2.10
2019-01-18T17:39:05.314Z,2.10
2019-01-18T17:41:38.904Z,2.10
2019-01-18T17:44:44.259Z,2.00
2019-01-18T17:47:15.907Z,2.00
2019-01-18T17:50:21.378Z,1.80
2019-01-18T17:53:04.698Z,1.80
2019-01-18T17:55:50.759Z,1.50
2019-01-18T17:58:22.949Z,1.40
2019-01-18T18:01:28.551Z,1.40
2019-01-18T18:04:00.511Z,1.30
2019-01-18T18:06:39.434Z,1.30
2019-01-18T18:09:09.436Z,1.30
2019-01-18T18:12:02.652Z,1.40
2019-01-18T18:15:02.302Z,1.50
2019-01-18T18:17:36.754Z,1.60
2019-01-18T18:20:25.885Z,1.70
2019-01-18T18:23:03.666Z,1.70
2019-01-18T18:25:38.761Z,1.80
2019-01-18T18:28:44.126Z,1.80
2019-01-18T18:31:15.138Z,1.80
2019-01-18T18:34:02.283Z,1.90
2019-01-18T18:36:40.979Z,1.90
2019-01-18T18:39:14.001Z,1.90
2019-01-18T18:42:01.170Z,1.80
2019-01-18T18:44:47.428Z,1.80
2019-01-18T18:47:44.158Z,1.70
2019-01-18T18:50:30.230Z,1.70
2019-01-18T18:53:26.683Z,1.70
2019-01-18T18:56:09.380Z,1.70
2019-01-18T18:58:53.804Z,1.70
2019-01-18T19:01:40.923Z,1.70
2019-01-18T19:04:18.544Z,1.70
2019-01-18T19:07:01.540Z,1.80
2019-01-18T19:09:54.722Z,1.80
2019-01-18T19:12:41.925Z,1.80
2019-01-18T19:15:25.135Z,1.80
2019-01-18T19:18:00.323Z,1.90
2019-01-18T19:20:56.266Z,1.90
2019-01-18T19:23:42.050Z,1.80
2019-01-18T19:26:29.185Z,1.80
2019-01-18T19:29:17.355Z,1.90
2019-01-18T19:31:58.536Z,1.80
2019-01-18T19:34:30.982Z,1.80
2019-01-18T19:37:20.477Z,1.80
2019-01-18T19:39:53.414Z,1.70
2019-01-18T19:42:33.346Z,1.80
2019-01-18T19:45:35.708Z,1.80
2019-01-18T19:48:10.416Z,1.80
2019-01-18T19:50:57.790Z,1.90
2019-01-18T19:53:43.805Z,1.90
2019-01-18T19:56:40.042Z,1.90
2019-01-18T19:59:15.667Z,1.90
2019-01-18T20:02:00.521Z,1.90
2019-01-18T20:04:59.603Z,1.90
2019-01-18T20:07:52.711Z,1.90
2019-01-18T20:10:38.604Z,1.90
2019-01-18T20:13:16.186Z,1.90
2019-01-18T20:15:51.467Z,1.90
2019-01-18T20:18:37.741Z,1.90
2019-01-18T20:21:30.895Z,1.90
2019-01-18T20:24:28.967Z,1.90
2019-01-18T20:27:05.443Z,1.90
2019-01-18T20:29:52.602Z,1.90
2019-01-18T20:32:42.671Z,1.90
2019-01-18T20:35:34.674Z,1.90
2019-01-18T20:38:40.182Z,1.90
2019-01-18T20:41:27.253Z,1.90
2019-01-18T20:44:23.472Z,1.90
2019-01-18T20:47:02.143Z,2.00
2019-01-18T20:49:55.210Z,2.00
2019-01-18T20:52:42.277Z,1.90
2019-01-18T20:55:28.497Z,2.00
2019-01-18T20:58:14.743Z,2.00
2019-01-18T21:00:50.910Z,1.90
2019-01-18T21:03:29.846Z,1.90
2019-01-18T21:06:08.453Z,1.90
2019-01-18T21:08:54.122Z,1.90
2019-01-18T21:11:24.766Z,1.90
2019-01-18T21:14:05.335Z,1.90
2019-01-18T21:16:45.776Z,1.90
2019-01-18T21:19:32.888Z,2.00
2019-01-18T21:22:10.909Z,1.90
2019-01-18T21:24:50.775Z,1.80
2019-01-18T21:27:34.673Z,1.80
2019-01-18T21:30:28.055Z,1.80
2019-01-18T21:33:27.310Z,1.80
2019-01-18T21:36:17.276Z,1.80
2019-01-18T21:38:58.731Z,1.80
2019-01-18T21:41:37.386Z,1.80
2019-01-18T21:44:24.715Z,1.80
2019-01-18T21:46:59.043Z,1.80
2019-01-18T21:49:46.258Z,1.70
2019-01-18T21:52:32.226Z,1.70
2019-01-18T21:55:22.371Z,1.70
2019-01-18T21:58:04.231Z,1.60
2019-01-18T22:00:57.809Z,1.60
2019-01-18T22:03:44.939Z,1.60
2019-01-18T22:06:21.051Z,1.60
2019-01-18T22:08:59.469Z,1.60
2019-01-18T22:11:46.803Z,1.60
2019-01-18T22:14:22.817Z,1.60
2019-01-18T22:17:08.872Z,1.60
2019-01-18T22:19:44.265Z,1.60
2019-01-18T22:22:31.372Z,1.60
2019-01-18T22:25:06.155Z,1.60
2019-01-18T22:27:38.435Z,1.50
2019-01-18T22:30:11.066Z,1.50
2019-01-18T22:32:52.847Z,1.40
2019-01-18T22:35:42.831Z,1.40
2019-01-18T22:38:32.690Z,1.40
2019-01-18T22:41:19.051Z,1.40
2019-01-18T22:44:05.639Z,1.40
2019-01-18T22:46:48.563Z,1.40
2019-01-18T22:49:28.201Z,1.40
2019-01-18T22:52:14.029Z,1.40
2019-01-18T22:54:46.554Z,1.40
2019-01-18T22:57:32.882Z,1.40
2019-01-18T23:00:37.019Z,1.40
2019-01-18T23:03:30.380Z,1.30
2019-01-18T23:06:14.827Z,1.30
2019-01-18T23:09:06.614Z,1.30
2019-01-18T23:11:46.911Z,1.30
2019-01-18T23:14:37.380Z,1.30
2019-01-18T23:17:23.565Z,1.30
2019-01-18T23:20:16.806Z,1.30
2019-01-18T23:22:58.046Z,1.20
2019-01-18T23:25:41.263Z,1.20
2019-01-18T23:28:28.337Z,1.20
2019-01-18T23:31:02.650Z,1.20
2019-01-18T23:33:52.743Z,1.30
2019-01-18T23:36:42.798Z,1.30
2019-01-18T23:39:28.722Z,1.30
2019-01-18T23:42:18.630Z,1.30
2019-01-18T23:45:04.547Z,1.40
2019-01-18T23:47:39.886Z,1.40
2019-01-18T23:50:25.902Z,1.30
2019-01-18T23:53:04.611Z,1.40
2019-01-18T23:55:58.253Z,1.40
2019-01-18T23:58:44.062Z,1.40
